Lynn Township, Michigan
Current Conditions -  °F | °C
As of 2:36 AM on Thursday 23 Oct 2014 (Local Time) from KPHN Reporting Station
Clear Clear  
Wind Chill: 29°   Ceiling: Unl
Heat Index: 36°   Visibility: 10mi
Dew Point: 36°   Wind: 9mph
Humidity: 100%   Direction: 300°WNW
Pressure: 30.26"   Gusts: NA
Location:  43.127°N, 82.8328°W
Report Text: KPHN 230636Z AUTO 30008KT 10SM CLR 02/02 A3026 RMK AO2
Loading
Personal Weather Stations






























Interactive Weather Map
Tropical Storm Tracking
New forecast layout! Learn more

10-Day Weather Forecast

Advertisements
Track Severe Weather on mobile